Time;durP1;ratioP1;P1;durP2;ratioP2;P2;SDS_P1;SDS_P2;PMS_P1;PMS_P2;Temp;Humidity;BMP_temperature;BMP_pressure;BME280_temperature;BME280_humidity;BME280_pressure;Samples;Min_cycle;Max_cycle;Signal;HPM_P1;HPM_P2
2021/12/09 00:01:03;;;;;;;1999.90;999.90;;;3.40;99.90;;;;;;4971257;28;20213;-73
2021/12/09 00:03:32;;;;;;;1999.90;999.90;;;3.40;99.90;;;;;;4971509;28;20146;-73
2021/12/09 00:05:59;;;;;;;1999.90;999.90;;;3.40;99.90;;;;;;4971135;28;20805;-73
2021/12/09 00:08:27;;;;;;;1999.90;999.90;;;3.40;99.90;;;;;;4971474;28;20174;-73
2021/12/09 00:10:54;;;;;;;1999.90;999.90;;;3.40;99.90;;;;;;4971238;28;20214;-73
2021/12/09 00:13:21;;;;;;;1999.90;999.90;;;3.40;99.90;;;;;;4971227;28;20167;-73
2021/12/09 00:15:47;;;;;;;1999.90;999.90;;;3.30;99.90;;;;;;4971020;28;20217;-74
2021/12/09 00:18:13;;;;;;;1999.90;999.90;;;3.20;99.90;;;;;;4971279;28;20194;-74
2021/12/09 00:20:39;;;;;;;1999.90;999.90;;;3.20;99.90;;;;;;4971068;28;20798;-75
2021/12/09 00:23:04;;;;;;;1999.90;999.90;;;3.20;99.90;;;;;;4971180;28;20175;-74
2021/12/09 00:25:31;;;;;;;1999.90;999.90;;;3.10;99.90;;;;;;4970902;28;20930;-73
2021/12/09 00:27:56;;;;;;;1999.90;999.90;;;3.00;99.90;;;;;;4970932;28;20413;-73
2021/12/09 00:30:22;;;;;;;1999.90;999.90;;;2.90;99.90;;;;;;4970936;28;20284;-73
2021/12/09 00:32:48;;;;;;;1999.90;999.90;;;2.90;99.90;;;;;;4971035;28;20220;-73
2021/12/09 00:35:17;;;;;;;1999.90;999.90;;;2.80;99.90;;;;;;4970636;28;20167;-73
2021/12/09 00:37:57;;;;;;;1999.90;999.90;;;2.80;99.90;;;;;;4969814;28;20171;-73
2021/12/09 00:40:23;;;;;;;1999.90;999.90;;;2.70;99.90;;;;;;4970791;28;20180;-73
2021/12/09 00:42:49;;;;;;;1999.90;999.90;;;2.70;99.90;;;;;;4970807;28;20632;-73
2021/12/09 00:45:14;;;;;;;1999.90;999.90;;;2.60;99.90;;;;;;4970564;28;20164;-73
2021/12/09 00:47:40;;;;;;;1999.90;999.90;;;2.50;99.90;;;;;;4970749;28;20185;-73
2021/12/09 00:50:06;;;;;;;1999.90;999.90;;;2.50;99.90;;;;;;4970677;28;20222;-73
2021/12/09 00:52:32;;;;;;;1999.90;999.90;;;2.50;99.90;;;;;;4970688;28;20197;-73
2021/12/09 00:54:59;;;;;;;1999.90;999.90;;;2.40;99.90;;;;;;4970350;28;20178;-73
2021/12/09 00:57:25;;;;;;;1999.90;999.90;;;2.40;99.90;;;;;;4970629;28;20649;-73
2021/12/09 00:59:51;;;;;;;1999.90;999.90;;;2.50;99.90;;;;;;4970562;28;20178;-74
2021/12/09 01:02:17;;;;;;;1999.90;999.90;;;2.40;99.90;;;;;;4970391;28;20206;-73
2021/12/09 01:04:44;;;;;;;1999.90;999.90;;;2.30;99.90;;;;;;4970236;28;20647;-74
2021/12/09 01:07:09;;;;;;;1999.90;999.90;;;2.30;99.90;;;;;;4970521;28;20189;-73
2021/12/09 01:09:35;;;;;;;1999.90;999.90;;;2.40;99.90;;;;;;4970444;28;20202;-74
2021/12/09 01:12:02;;;;;;;1999.90;999.90;;;2.40;99.90;;;;;;4970368;28;20574;-74
2021/12/09 01:14:27;;;;;;;1999.90;999.90;;;2.50;99.90;;;;;;4970157;28;20589;-74
2021/12/09 01:16:53;;;;;;;1999.90;999.90;;;2.60;99.90;;;;;;4970363;28;20257;-73
2021/12/09 01:19:19;;;;;;;1999.90;999.90;;;2.50;99.90;;;;;;4970422;28;20178;-73
2021/12/09 01:21:44;;;;;;;1999.90;999.90;;;2.50;99.90;;;;;;4970231;28;20197;-73
2021/12/09 01:24:10;;;;;;;1999.90;999.90;;;2.60;99.90;;;;;;4970015;28;20185;-73
2021/12/09 01:26:36;;;;;;;1999.90;999.90;;;2.50;99.90;;;;;;4970295;28;20236;-73
2021/12/09 01:29:10;;;;;;;1999.90;999.90;;;2.50;99.90;;;;;;4970138;28;20197;-73
2021/12/09 01:31:38;;;;;;;1999.90;999.90;;;2.50;99.90;;;;;;4970166;28;20433;-73
2021/12/09 01:34:05;;;;;;;1999.90;999.90;;;2.50;99.90;;;;;;4969849;28;20163;-73
2021/12/09 01:36:33;;;;;;;1999.90;999.90;;;2.40;99.90;;;;;;4970315;28;20697;-73
2021/12/09 01:38:59;;;;;;;1999.90;999.90;;;2.40;99.90;;;;;;4970111;28;20170;-73
2021/12/09 01:41:26;;;;;;;1999.90;999.90;;;2.40;99.90;;;;;;4970066;28;20763;-72
2021/12/09 01:43:51;;;;;;;1999.90;999.90;;;2.40;99.90;;;;;;4970013;28;20669;-73
2021/12/09 01:46:20;;;;;;;1999.90;999.90;;;2.40;99.90;;;;;;4969825;28;20167;-72
2021/12/09 01:48:47;;;;;;;1999.90;999.90;;;2.40;99.90;;;;;;4971669;28;20173;-73
2021/12/09 01:51:14;;;;;;;1999.90;999.90;;;2.40;99.90;;;;;;4973182;28;20206;-72
2021/12/09 01:53:40;;;;;;;1999.90;999.90;;;2.40;99.90;;;;;;4973397;28;20231;-72
2021/12/09 01:56:09;;;;;;;1999.90;999.90;;;2.50;99.90;;;;;;4973118;28;20179;-72
2021/12/09 01:58:36;;;;;;;1999.90;999.90;;;2.50;99.90;;;;;;4973287;28;20812;-72
2021/12/09 02:01:02;;;;;;;1999.90;999.90;;;2.50;99.90;;;;;;4973125;28;20257;-73
2021/12/09 02:03:28;;;;;;;1999.90;999.90;;;2.50;99.90;;;;;;4973262;28;20182;-72
2021/12/09 02:05:54;;;;;;;1999.90;999.90;;;2.60;99.90;;;;;;4972859;28;20715;-72
2021/12/09 02:08:20;;;;;;;1999.90;999.90;;;2.60;99.90;;;;;;4973181;28;20182;-73
2021/12/09 02:10:47;;;;;;;1999.90;999.90;;;2.60;99.90;;;;;;4972980;28;20218;-72
2021/12/09 02:13:14;;;;;;;1999.90;999.90;;;2.70;99.90;;;;;;4973061;28;20452;-72
2021/12/09 02:15:40;;;;;;;1999.90;999.90;;;2.60;99.90;;;;;;4972820;28;20262;-72
2021/12/09 02:18:08;;;;;;;1999.90;999.90;;;2.60;99.90;;;;;;4972950;28;20175;-72
2021/12/09 02:20:36;;;;;;;1999.90;999.90;;;2.60;99.90;;;;;;4972971;28;20203;-73
2021/12/09 02:23:07;;;;;;;1999.90;999.90;;;2.60;99.90;;;;;;4972913;28;20178;-73
2021/12/09 02:25:33;;;;;;;1999.90;999.90;;;2.70;99.90;;;;;;4972779;28;20174;-73
2021/12/09 02:27:59;;;;;;;1999.90;999.90;;;2.60;99.90;;;;;;4972861;28;20174;-73
2021/12/09 02:30:25;;;;;;;1999.90;999.90;;;2.60;99.90;;;;;;4972742;28;20284;-73
2021/12/09 02:32:50;;;;;;;1999.90;999.90;;;2.70;99.90;;;;;;4972729;28;20163;-72
2021/12/09 02:35:16;;;;;;;1999.90;999.90;;;2.60;99.90;;;;;;4972513;28;20245;-72
2021/12/09 02:37:44;;;;;;;1999.90;999.90;;;2.60;99.90;;;;;;4972750;28;20174;-73
2021/12/09 02:40:10;;;;;;;1999.90;999.90;;;2.60;99.90;;;;;;4972665;28;20632;-72
2021/12/09 02:42:36;;;;;;;1999.90;999.90;;;2.60;99.90;;;;;;4972691;28;20178;-72
2021/12/09 02:45:08;;;;;;;1999.90;999.90;;;2.60;99.90;;;;;;4972338;28;20182;-72
2021/12/09 02:47:34;;;;;;;1999.90;999.90;;;2.70;99.90;;;;;;4972496;28;20182;-73
2021/12/09 02:50:00;;;;;;;1999.90;999.90;;;2.80;99.90;;;;;;4972486;28;20198;-73
2021/12/09 02:52:26;;;;;;;1999.90;999.90;;;2.70;99.90;;;;;;4972448;28;20491;-72
2021/12/09 02:54:52;;;;;;;1999.90;999.90;;;2.60;99.90;;;;;;4972144;28;20460;-73
2021/12/09 02:57:18;;;;;;;1999.90;999.90;;;2.60;99.90;;;;;;4972474;28;20202;-73
2021/12/09 02:59:44;;;;;;;1999.90;999.90;;;2.60;99.90;;;;;;4971488;28;20566;-72
2021/12/09 03:02:11;;;;;;;1999.90;999.90;;;2.50;99.90;;;;;;4972129;28;20648;-73
2021/12/09 03:04:51;;;;;;;1999.90;999.90;;;2.40;99.90;;;;;;4972160;28;20167;-73
2021/12/09 03:07:32;;;;;;;1999.90;999.90;;;2.40;99.90;;;;;;4972313;28;20171;-74
2021/12/09 03:10:03;;;;;;;1999.90;999.90;;;2.40;99.90;;;;;;4972220;28;20190;-73
2021/12/09 03:12:32;;;;;;;1999.90;999.90;;;2.30;99.90;;;;;;4972155;28;20182;-72
2021/12/09 03:14:58;;;;;;;1999.90;999.90;;;2.20;99.90;;;;;;4971877;28;20194;-73
2021/12/09 03:17:24;;;;;;;1999.90;999.90;;;2.30;99.90;;;;;;4972117;28;20174;-73
2021/12/09 03:19:51;;;;;;;1999.90;999.90;;;2.30;99.90;;;;;;4972084;28;20179;-72
2021/12/09 03:22:17;;;;;;;1999.90;999.90;;;2.20;99.90;;;;;;4972026;28;20680;-73
2021/12/09 03:24:43;;;;;;;1999.90;999.90;;;2.20;99.90;;;;;;4971708;28;20166;-73
2021/12/09 03:27:09;;;;;;;1999.90;999.90;;;2.10;99.90;;;;;;4971923;28;20678;-73
2021/12/09 03:29:36;;;;;;;1999.90;999.90;;;2.10;99.90;;;;;;4972146;28;20450;-73
2021/12/09 03:32:08;;;;;;;1999.90;999.90;;;2.10;99.90;;;;;;4971933;28;20285;-74
2021/12/09 03:34:35;;;;;;;1999.90;999.90;;;2.20;99.90;;;;;;4971659;28;20174;-74
2021/12/09 03:37:05;;;;;;;1999.90;999.90;;;2.20;99.90;;;;;;4971834;28;20540;-74
2021/12/09 03:39:34;;;;;;;1999.90;999.90;;;2.30;99.90;;;;;;4971739;28;20171;-73
2021/12/09 03:42:05;;;;;;;1999.90;999.90;;;2.50;99.90;;;;;;4971566;28;20194;-73
2021/12/09 03:44:31;;;;;;;1999.90;999.90;;;2.50;99.90;;;;;;4971575;28;20167;-73
2021/12/09 03:47:00;;;;;;;1999.90;999.90;;;2.60;99.90;;;;;;4971714;28;20259;-73
2021/12/09 03:49:26;;;;;;;1999.90;999.90;;;2.60;99.90;;;;;;4971616;28;20456;-73
2021/12/09 03:51:53;;;;;;;1999.90;999.90;;;2.60;99.90;;;;;;4971584;28;20196;-73
2021/12/09 03:54:19;;;;;;;1999.90;999.90;;;2.70;99.90;;;;;;4971390;28;20249;-73
2021/12/09 03:56:46;;;;;;;1999.90;999.90;;;2.70;99.90;;;;;;4971563;28;20190;-74
2021/12/09 03:59:13;;;;;;;1999.90;999.90;;;2.70;99.90;;;;;;4971485;28;20193;-74
2021/12/09 04:01:41;;;;;;;1999.90;999.90;;;2.70;99.90;;;;;;4971280;28;20278;-74
2021/12/09 04:04:07;;;;;;;1999.90;999.90;;;2.60;99.90;;;;;;4971223;28;20246;-73
2021/12/09 04:06:34;;;;;;;1999.90;999.90;;;2.60;99.90;;;;;;4971383;28;20167;-73
2021/12/09 04:09:00;;;;;;;1999.90;999.90;;;2.50;99.90;;;;;;4971421;28;20186;-73
2021/12/09 04:11:27;;;;;;;1999.90;999.90;;;2.50;99.90;;;;;;4971096;28;20664;-73
2021/12/09 04:13:54;;;;;;;1999.90;999.90;;;2.40;99.90;;;;;;4971266;28;20263;-73
2021/12/09 04:16:20;;;;;;;1999.90;999.90;;;2.30;99.90;;;;;;4970941;28;20173;-73
2021/12/09 04:18:46;;;;;;;1999.90;999.90;;;2.20;99.90;;;;;;4971195;28;20163;-73
2021/12/09 04:21:12;;;;;;;1999.90;999.90;;;2.10;99.90;;;;;;4971110;28;20256;-73
2021/12/09 04:23:38;;;;;;;1999.90;999.90;;;2.00;99.90;;;;;;4971112;28;20257;-73
2021/12/09 04:26:05;;;;;;;1999.90;999.90;;;2.00;99.90;;;;;;4970839;28;20262;-73
2021/12/09 04:28:32;;;;;;;1999.90;999.90;;;1.90;99.90;;;;;;4971036;28;20463;-73
2021/12/09 04:30:58;;;;;;;1999.90;999.90;;;1.90;99.90;;;;;;4970832;28;20220;-73
2021/12/09 04:33:23;;;;;;;1999.90;999.90;;;1.90;99.90;;;;;;4971064;28;20228;-73
2021/12/09 04:35:49;;;;;;;1999.90;999.90;;;1.80;99.90;;;;;;4970656;28;20696;-74
2021/12/09 04:38:15;;;;;;;1999.90;999.90;;;1.80;99.90;;;;;;4970976;28;20652;-73
2021/12/09 04:40:40;;;;;;;1999.90;999.90;;;1.80;99.90;;;;;;4970873;28;20189;-72
2021/12/09 04:43:06;;;;;;;1999.90;999.90;;;1.70;99.90;;;;;;4971279;28;20751;-73
2021/12/09 04:45:38;;;;;;;1999.90;999.90;;;1.60;99.90;;;;;;4970500;28;20167;-73
2021/12/09 04:48:04;;;;;;;1999.90;999.90;;;1.60;99.90;;;;;;4970837;28;20155;-73
2021/12/09 04:50:30;;;;;;;1999.90;999.90;;;1.50;99.90;;;;;;4970568;28;20560;-73
2021/12/09 04:52:56;;;;;;;1999.90;999.90;;;1.50;99.90;;;;;;4970759;28;20188;-74
2021/12/09 04:55:22;;;;;;;1999.90;999.90;;;1.40;99.90;;;;;;4970404;28;20177;-74
2021/12/09 04:57:47;;;;;;;1999.90;999.90;;;1.40;99.90;;;;;;4970657;28;20406;-75
2021/12/09 05:00:17;;;;;;;1999.90;999.90;;;1.40;99.90;;;;;;4970392;28;20187;-74
2021/12/09 05:05:12;;;;;;;1999.90;999.90;;;1.30;99.90;;;;;;4970263;28;20604;-74
2021/12/09 05:07:37;;;;;;;1999.90;999.90;;;1.30;99.90;;;;;;4970541;28;20224;-74
2021/12/09 05:10:04;;;;;;;1999.90;999.90;;;1.20;99.90;;;;;;4970385;28;20476;-74
2021/12/09 05:12:30;;;;;;;1999.90;999.90;;;1.20;99.90;;;;;;4970312;28;20198;-74
2021/12/09 05:14:56;;;;;;;1999.90;999.90;;;1.20;99.90;;;;;;4970030;28;20655;-72
2021/12/09 05:17:21;;;;;;;1999.90;999.90;;;1.20;99.90;;;;;;4970345;28;20167;-72
2021/12/09 05:19:47;;;;;;;1999.90;999.90;;;1.10;99.90;;;;;;4970351;28;20307;-72
2021/12/09 05:22:14;;;;;;;1999.90;999.90;;;1.10;99.90;;;;;;4970009;28;20465;-73
2021/12/09 05:24:40;;;;;;;1999.90;999.90;;;1.00;99.90;;;;;;4969784;28;20413;-72
2021/12/09 05:27:07;;;;;;;1999.90;999.90;;;1.10;99.90;;;;;;4970278;28;20170;-72
2021/12/09 05:29:39;;;;;;;1999.90;999.90;;;1.20;99.90;;;;;;4970199;28;20202;-72
2021/12/09 05:32:10;;;;;;;1999.90;999.90;;;1.20;99.90;;;;;;4970117;28;20198;-72
2021/12/09 05:34:41;;;;;;;1999.90;999.90;;;1.20;99.90;;;;;;4970117;28;20666;-72
2021/12/09 05:37:14;;;;;;;1999.90;999.90;;;1.20;99.90;;;;;;4970240;28;20545;-72
2021/12/09 05:39:42;;;;;;;1999.90;999.90;;;1.20;99.90;;;;;;4970268;28;20178;-72
2021/12/09 05:42:09;;;;;;;1999.90;999.90;;;1.30;99.90;;;;;;4970121;28;20663;-72
2021/12/09 05:44:35;;;;;;;1999.90;999.90;;;1.30;99.90;;;;;;4969740;28;20171;-72
2021/12/09 05:47:04;;;;;;;1999.90;999.90;;;1.30;99.90;;;;;;4970111;28;20174;-72
2021/12/09 05:49:30;;;;;;;1999.90;999.90;;;1.30;99.90;;;;;;4969977;28;20679;-73
2021/12/09 05:51:55;;;;;;;1999.90;999.90;;;1.30;99.90;;;;;;4969966;28;20206;-73
2021/12/09 05:54:21;;;;;;;1999.90;999.90;;;1.30;99.90;;;;;;4969711;28;20176;-74
2021/12/09 05:56:47;;;;;;;1999.90;999.90;;;1.30;99.90;;;;;;4969980;28;20243;-74
2021/12/09 05:59:13;;;;;;;1999.90;999.90;;;1.20;99.90;;;;;;4968584;28;20236;-74
2021/12/09 06:01:40;;;;;;;1999.90;999.90;;;1.20;99.90;;;;;;4969694;28;20275;-74
2021/12/09 06:04:06;;;;;;;1999.90;999.90;;;1.20;99.90;;;;;;4969591;28;20169;-74
2021/12/09 06:06:33;;;;;;;1999.90;999.90;;;1.20;99.90;;;;;;4969802;28;20194;-73
2021/12/09 06:08:58;;;;;;;1999.90;999.90;;;1.10;99.90;;;;;;4969788;28;20624;-73
2021/12/09 06:11:26;;;;;;;1999.90;999.90;;;1.00;99.90;;;;;;4969636;28;20271;-73
2021/12/09 06:13:52;;;;;;;1999.90;999.90;;;1.10;99.90;;;;;;4969596;28;20217;-74
2021/12/09 06:16:18;;;;;;;1999.90;999.90;;;1.10;99.90;;;;;;4969395;28;20170;-73
2021/12/09 06:18:44;;;;;;;1999.90;999.90;;;1.10;99.90;;;;;;4969695;28;20232;-73
2021/12/09 06:21:11;;;;;;;1999.90;999.90;;;1.20;99.90;;;;;;4969580;28;20426;-73
2021/12/09 06:23:37;;;;;;;1999.90;999.90;;;1.10;99.90;;;;;;4969608;28;20414;-73
2021/12/09 06:26:05;;;;;;;1999.90;999.90;;;1.20;99.90;;;;;;4969458;28;20174;-73
2021/12/09 06:28:31;;;;;;;1999.90;999.90;;;1.20;99.90;;;;;;4969484;28;20171;-73
2021/12/09 06:30:57;;;;;;;1999.90;999.90;;;1.30;99.90;;;;;;4969381;28;20218;-73
2021/12/09 06:33:22;;;;;;;1999.90;999.90;;;1.40;99.90;;;;;;4969502;28;20181;-73
2021/12/09 06:35:48;;;;;;;1999.90;999.90;;;1.30;99.90;;;;;;4971030;28;20170;-73
2021/12/09 06:38:16;;;;;;;1999.90;999.90;;;1.30;99.90;;;;;;4972718;28;20174;-72
2021/12/09 06:40:42;;;;;;;1999.90;999.90;;;1.40;99.90;;;;;;4972674;28;20191;-72
2021/12/09 06:43:08;;;;;;;1999.90;999.90;;;1.50;99.90;;;;;;4972634;28;20182;-72
2021/12/09 06:45:34;;;;;;;1999.90;999.90;;;1.60;99.90;;;;;;4972381;28;20523;-72
2021/12/09 06:48:00;;;;;;;1999.90;999.90;;;1.60;99.90;;;;;;4972788;28;20170;-74
2021/12/09 06:50:26;;;;;;;1999.90;999.90;;;1.60;99.90;;;;;;4972553;28;20449;-74
2021/12/09 06:52:52;;;;;;;1999.90;999.90;;;1.50;99.90;;;;;;4972662;28;20578;-74
2021/12/09 06:55:19;;;;;;;1999.90;999.90;;;1.50;99.90;;;;;;4972355;28;20255;-74
2021/12/09 06:57:46;;;;;;;1999.90;999.90;;;1.40;99.90;;;;;;4972671;28;20178;-73
2021/12/09 07:00:18;;;;;;;1999.90;999.90;;;1.40;99.90;;;;;;4972591;28;20174;-73
2021/12/09 07:02:46;;;;;;;1999.90;999.90;;;1.40;99.90;;;;;;4972476;28;20565;-73
2021/12/09 07:05:13;;;;;;;1999.90;999.90;;;1.40;99.90;;;;;;4972119;28;20174;-73
2021/12/09 07:07:39;;;;;;;1999.90;999.90;;;1.50;99.90;;;;;;4972345;28;20174;-73
2021/12/09 07:10:08;;;;;;;1999.90;999.90;;;1.40;99.90;;;;;;4972494;28;20202;-73
2021/12/09 07:12:35;;;;;;;1999.90;999.90;;;1.40;99.90;;;;;;4972211;28;20632;-72
2021/12/09 07:15:05;;;;;;;1999.90;999.90;;;1.60;99.90;;;;;;4971939;28;20174;-72
2021/12/09 07:17:31;;;;;;;1999.90;999.90;;;1.60;99.90;;;;;;4972214;28;20194;-72
2021/12/09 07:19:57;;;;;;;1999.90;999.90;;;1.60;99.90;;;;;;4972149;28;20206;-72
2021/12/09 07:22:22;;;;;;;1999.90;999.90;;;1.60;99.90;;;;;;4971893;28;20201;-73
2021/12/09 07:24:48;;;;;;;1999.90;999.90;;;1.60;99.90;;;;;;4971803;28;20204;-72
2021/12/09 07:27:14;;;;;;;1999.90;999.90;;;1.60;99.90;;;;;;4971933;28;20171;-72
2021/12/09 07:29:39;;;;;;;1999.90;999.90;;;1.50;99.90;;;;;;4971933;28;20615;-72
2021/12/09 07:32:06;;;;;;;1999.90;999.90;;;1.50;99.90;;;;;;4972000;28;20834;-72
2021/12/09 07:34:31;;;;;;;1999.90;999.90;;;1.50;99.90;;;;;;4971780;28;20178;-74
2021/12/09 07:37:02;;;;;;;1999.90;999.90;;;1.50;99.90;;;;;;4971901;28;20550;-74
2021/12/09 07:39:27;;;;;;;1999.90;999.90;;;1.50;99.90;;;;;;4971889;28;20641;-74
2021/12/09 07:41:54;;;;;;;1999.90;999.90;;;1.60;99.90;;;;;;4971738;28;20218;-73
2021/12/09 07:44:20;;;;;;;1999.90;999.90;;;1.50;99.90;;;;;;4971496;28;20166;-73
2021/12/09 07:46:48;;;;;;;1999.90;999.90;;;1.50;99.90;;;;;;4971252;28;20174;-73
2021/12/09 07:49:14;;;;;;;1999.90;999.90;;;1.50;99.90;;;;;;4971610;28;20228;-73
2021/12/09 07:51:40;;;;;;;1999.90;999.90;;;1.50;99.90;;;;;;4971514;28;20222;-72
2021/12/09 07:54:05;;;;;;;1999.90;999.90;;;1.50;99.90;;;;;;4971415;28;20263;-72
2021/12/09 07:56:31;;;;;;;1999.90;999.90;;;1.50;99.90;;;;;;4971573;28;20194;-72
2021/12/09 07:58:57;;;;;;;1999.90;999.90;;;1.50;99.90;;;;;;4971600;28;20185;-74
2021/12/09 08:01:22;;;;;;;1999.90;999.90;;;1.60;99.90;;;;;;4971234;28;20217;-74
2021/12/09 08:03:48;;;;;;;1999.90;999.90;;;1.60;99.90;;;;;;4971459;28;20174;-71
2021/12/09 08:06:15;;;;;;;1999.90;999.90;;;1.70;99.90;;;;;;4971161;28;20178;-72
2021/12/09 08:08:40;;;;;;;1999.90;999.90;;;1.70;99.90;;;;;;4971416;28;20772;-72
2021/12/09 08:11:07;;;;;;;1999.90;999.90;;;1.80;99.90;;;;;;4971210;28;20206;-72
2021/12/09 08:13:33;;;;;;;1999.90;999.90;;;1.80;99.90;;;;;;4971320;28;20212;-72
2021/12/09 08:16:00;;;;;;;1999.90;999.90;;;1.90;99.90;;;;;;4971066;28;20640;-72
2021/12/09 08:18:27;;;;;;;1999.90;999.90;;;1.90;99.90;;;;;;4971245;28;20216;-72
2021/12/09 08:20:59;;;;;;;1999.90;999.90;;;2.00;99.90;;;;;;4971058;28;20744;-73
2021/12/09 08:23:25;;;;;;;1999.90;999.90;;;2.10;99.90;;;;;;4971190;28;20644;-72
2021/12/09 08:25:51;;;;;;;1999.90;999.90;;;2.10;99.90;;;;;;4970870;28;20190;-72
2021/12/09 08:28:17;;;;;;;1999.90;999.90;;;2.20;99.90;;;;;;4971130;28;20261;-72
2021/12/09 08:30:43;;;;;;;1999.90;999.90;;;2.20;99.90;;;;;;4970914;28;20289;-73
2021/12/09 08:33:09;;;;;;;1999.90;999.90;;;2.20;99.90;;;;;;4970993;28;20610;-73
2021/12/09 08:35:36;;;;;;;1999.90;999.90;;;2.30;99.90;;;;;;4970755;28;20171;-73
2021/12/09 08:38:04;;;;;;;1999.90;999.90;;;2.30;99.90;;;;;;4970974;28;20190;-73
2021/12/09 08:40:30;;;;;;;1999.90;999.90;;;2.40;99.90;;;;;;4970858;28;20198;-73
2021/12/09 08:42:56;;;;;;;1999.90;999.90;;;2.40;99.90;;;;;;4970931;28;20224;-73
2021/12/09 08:45:22;;;;;;;1999.90;999.90;;;2.50;99.90;;;;;;4970639;28;20528;-72
2021/12/09 08:47:49;;;;;;;1999.90;999.90;;;2.60;99.90;;;;;;4970645;28;20177;-71
2021/12/09 08:50:19;;;;;;;1999.90;999.90;;;2.70;99.90;;;;;;4970621;28;20206;-72
2021/12/09 08:52:45;;;;;;;1999.90;999.90;;;2.80;99.90;;;;;;4970742;28;20174;-72
2021/12/09 08:55:11;;;;;;;1999.90;999.90;;;2.90;99.90;;;;;;4970417;28;20173;-72
2021/12/09 08:57:37;;;;;;;1999.90;999.90;;;3.00;99.90;;;;;;4969775;28;20640;-72
2021/12/09 09:00:11;;;;;;;1999.90;999.90;;;3.10;99.90;;;;;;4970621;28;20166;-71
2021/12/09 09:02:40;;;;;;;1999.90;999.90;;;3.20;99.90;;;;;;4970619;28;20181;-71
2021/12/09 09:05:10;;;;;;;1999.90;999.90;;;3.20;99.90;;;;;;4970453;28;20174;-72
2021/12/09 09:07:46;;;;;;;1999.90;999.90;;;3.20;99.90;;;;;;4970786;28;20209;-72
2021/12/09 09:10:14;;;;;;;1999.90;999.90;;;3.30;99.90;;;;;;4970504;28;20663;-72
2021/12/09 09:12:40;;;;;;;1999.90;999.90;;;3.40;99.90;;;;;;4970526;28;20186;-73
2021/12/09 09:15:11;;;;;;;1999.90;999.90;;;3.50;99.90;;;;;;4970232;28;20535;-73
2021/12/09 09:17:38;;;;;;;1999.90;999.90;;;3.50;99.90;;;;;;4970195;28;20242;-73
2021/12/09 09:20:06;;;;;;;1999.90;999.90;;;3.60;99.90;;;;;;4970462;28;20178;-73
2021/12/09 09:22:31;;;;;;;1999.90;999.90;;;3.60;99.90;;;;;;4970411;28;20195;-72
2021/12/09 09:24:57;;;;;;;1999.90;999.90;;;3.70;99.90;;;;;;4970117;28;20547;-74
2021/12/09 09:27:23;;;;;;;1999.90;999.90;;;3.80;99.90;;;;;;4970344;28;20202;-73
2021/12/09 09:29:49;;;;;;;1999.90;999.90;;;3.90;99.90;;;;;;4970319;28;20464;-73
2021/12/09 09:32:14;;;;;;;1999.90;999.90;;;3.90;99.90;;;;;;4970321;28;20721;-72
2021/12/09 09:34:41;;;;;;;1999.90;999.90;;;4.00;99.90;;;;;;4970032;28;20162;-72
2021/12/09 09:37:06;;;;;;;1999.90;999.90;;;4.10;99.90;;;;;;4970313;28;20751;-72
2021/12/09 09:39:33;;;;;;;1999.90;999.90;;;4.20;99.90;;;;;;4970243;28;20170;-72
2021/12/09 09:44:47;;;;;;;1999.90;999.90;;;4.40;99.90;;;;;;4969974;28;20394;-72
2021/12/09 09:47:12;;;;;;;1999.90;999.90;;;4.50;99.90;;;;;;4970198;28;20158;-72
2021/12/09 09:49:40;;;;;;;1999.90;999.90;;;4.70;99.90;;;;;;4970043;28;20199;-72
2021/12/09 09:52:08;;;;;;;1999.90;999.90;;;4.80;99.90;;;;;;4970023;28;20429;-73
2021/12/09 09:54:38;;;;;;;1999.90;999.90;;;4.90;99.90;;;;;;4965231;28;20166;-73
2021/12/09 09:57:06;;;;;;;1999.90;999.90;;;5.00;99.90;;;;;;4968144;28;20402;-73
2021/12/09 09:59:32;;;;;;;1999.90;999.90;;;5.00;99.90;;;;;;4968860;28;20505;-73
2021/12/09 10:01:57;;;;;;;1999.90;999.90;;;5.00;99.90;;;;;;4968268;28;20445;-73
2021/12/09 10:07:04;;;;;;;1999.90;999.90;;;5.30;99.90;;;;;;4969271;28;20170;-74
2021/12/09 10:09:30;;;;;;;1999.90;999.90;;;5.60;99.90;;;;;;4970328;28;20484;-74
2021/12/09 10:11:56;;;;;;;1999.90;999.90;;;5.70;99.90;;;;;;4972695;28;20578;-74
2021/12/09 10:14:24;;;;;;;1999.90;999.90;;;5.80;99.90;;;;;;4972615;28;20167;-73
2021/12/09 10:17:10;;;;;;;1999.90;999.90;;;6.00;99.90;;;;;;4972132;28;20171;-73
2021/12/09 10:19:47;;;;;;;1999.90;999.90;;;6.00;99.90;;;;;;4972748;28;20394;-73
2021/12/09 10:22:17;;;;;;;1999.90;999.90;;;6.00;99.90;;;;;;4972540;28;20414;-73
2021/12/09 10:24:45;;;;;;;1999.90;999.90;;;5.80;99.90;;;;;;4972013;28;20401;-73
2021/12/09 10:27:30;;;;;;;1999.90;999.90;;;5.80;99.90;;;;;;4972697;28;20907;-73
2021/12/09 10:30:19;;;;;;;1999.90;999.90;;;5.60;99.90;;;;;;4972451;28;20449;-73
2021/12/09 10:32:46;;;;;;;1999.90;999.90;;;5.60;99.90;;;;;;4972077;28;20461;-74
2021/12/09 10:35:18;;;;;;;1999.90;999.90;;;5.50;99.90;;;;;;4972399;28;20428;-72
2021/12/09 10:37:48;;;;;;;1999.90;999.90;;;5.40;99.90;;;;;;4972529;28;20497;-72
2021/12/09 10:40:20;;;;;;;1999.90;999.90;;;5.30;99.90;;;;;;4972042;28;20915;-72
2021/12/09 10:42:49;;;;;;;1999.90;999.90;;;5.30;99.90;;;;;;4972791;28;20903;-72
2021/12/09 10:45:21;;;;;;;1999.90;999.90;;;5.30;99.90;;;;;;4972509;28;20259;-72
2021/12/09 10:48:01;;;;;;;1999.90;999.90;;;5.30;99.90;;;;;;4972050;28;20418;-72
2021/12/09 10:53:17;;;;;;;1999.90;999.90;;;5.30;99.90;;;;;;4952566;28;20422;-72
2021/12/09 10:55:44;;;;;;;1999.90;999.90;;;5.30;99.90;;;;;;4951375;28;20205;-73
2021/12/09 10:58:13;;;;;;;1999.90;999.90;;;5.20;99.90;;;;;;4952870;28;20836;-73
2021/12/09 11:00:45;;;;;;;1999.90;999.90;;;5.20;99.90;;;;;;4952441;28;20187;-73
2021/12/09 11:03:40;;;;;;;1999.90;999.90;;;5.30;99.90;;;;;;4952817;28;20171;-73
2021/12/09 11:06:10;;;;;;;1999.90;999.90;;;5.30;99.90;;;;;;4952328;29;20427;-74
2021/12/09 11:08:45;;;;;;;1999.90;999.90;;;5.30;99.90;;;;;;4952344;28;20418;-73
2021/12/09 11:11:29;;;;;;;1999.90;999.90;;;5.30;99.90;;;;;;4951212;28;20497;-73
2021/12/09 11:14:02;;;;;;;1999.90;999.90;;;5.30;99.90;;;;;;4952491;28;20419;-70
2021/12/09 11:16:39;;;;;;;1999.90;999.90;;;5.30;99.90;;;;;;4952308;28;20411;-73
2021/12/09 11:22:01;;;;;;;1999.90;999.90;;;5.60;99.90;;;;;;4951672;28;20435;-72
2021/12/09 11:24:32;;;;;;;1999.90;999.90;;;5.70;99.90;;;;;;4952040;28;20411;-73
2021/12/09 11:27:01;;;;;;;1999.90;999.90;;;5.80;99.90;;;;;;4952500;28;20422;-72
2021/12/09 11:29:34;;;;;;;1999.90;999.90;;;5.90;99.90;;;;;;4952694;28;20423;-73
2021/12/09 11:32:27;;;;;;;1999.90;999.90;;;6.00;99.90;;;;;;4950051;28;20451;-69
2021/12/09 11:35:10;;;;;;;1999.90;999.90;;;6.00;99.90;;;;;;4951469;28;20902;-70
2021/12/09 11:37:38;;;;;;;1999.90;999.90;;;6.00;99.90;;;;;;4951259;28;20419;-70
2021/12/09 11:40:07;;;;;;;1999.90;999.90;;;6.20;99.90;;;;;;4951877;28;20410;-70
2021/12/09 11:45:11;;;;;;;1999.90;999.90;;;6.20;99.90;;;;;;4951339;28;20395;-70
2021/12/09 11:47:42;;;;;;;1999.90;999.90;;;6.20;99.90;;;;;;4951620;28;20422;-70
2021/12/09 11:50:11;;;;;;;1999.90;999.90;;;6.20;99.90;;;;;;4951937;28;20959;-69
2021/12/09 11:52:38;;;;;;;1999.90;999.90;;;6.20;99.90;;;;;;4950984;28;20411;-70
2021/12/09 11:55:07;;;;;;;1999.90;999.90;;;6.30;99.90;;;;;;4951712;28;20410;-70
2021/12/09 12:12:26;;;;;;;1999.90;999.90;;;6.30;99.90;;;;;;4950420;28;20487;-71
2021/12/09 12:14:56;;;;;;;1999.90;999.90;;;6.40;99.90;;;;;;4950945;28;20398;-71
2021/12/09 12:25:45;;;;;;;1999.90;999.90;;;6.40;99.90;;;;;;4950584;28;20835;-71
2021/12/09 12:29:22;;;;;;;1999.90;999.90;;;6.40;99.90;;;;;;4951238;28;20399;-71
2021/12/09 12:37:14;;;;;;;1999.90;999.90;;;6.30;99.90;;;;;;4951262;28;20410;-69
2021/12/09 12:42:25;;;;;;;1999.90;999.90;;;6.30;99.90;;;;;;4951487;28;20427;-72
2021/12/09 12:45:28;;;;;;;1999.90;999.90;;;6.20;99.90;;;;;;4950627;28;20411;-71
2021/12/09 12:48:21;;;;;;;1999.90;999.90;;;6.10;99.90;;;;;;4950851;28;20853;-69
2021/12/09 12:51:00;;;;;;;1999.90;999.90;;;6.00;99.90;;;;;;4950786;28;20884;-69
2021/12/09 12:53:41;;;;;;;1999.90;999.90;;;6.00;99.90;;;;;;4950315;28;20411;-71
2021/12/09 12:56:12;;;;;;;1999.90;999.90;;;5.90;99.90;;;;;;4950810;28;20957;-71
2021/12/09 12:58:39;;;;;;;1999.90;999.90;;;5.90;99.90;;;;;;4950696;28;20407;-70
2021/12/09 13:01:18;;;;;;;1999.90;999.90;;;5.80;99.90;;;;;;4951013;28;20434;-71